Time,TemperatureF,DewpointF,PressureIn,WindDirection,WindDirectionDegrees,WindSpeedMPH,WindSpeedGustMPH,Humidity,HourlyPrecipIn,Conditions,Clouds,dailyrainin,SoftwareType,DateUTC
2013-07-31 00:02:00,69.0,67.0,-100.00,ENE,70,5.0,8.0,93,-99.99,,,-99.99,,2013-07-31 05:02:00,
2013-07-31 00:11:00,69.0,67.0,-100.00,ENE,75,4.0,9.0,93,-99.99,,,-99.99,,2013-07-31 05:11:00,
2013-07-31 00:22:00,69.0,67.0,-100.00,ENE,75,4.0,9.0,93,-99.99,,,-99.99,,2013-07-31 05:22:00,
2013-07-31 00:42:00,69.0,67.0,-100.00,East,90,7.0,9.0,93,-99.99,,,-99.99,,2013-07-31 05:42:00,
2013-07-31 00:52:00,69.0,67.0,-100.00,East,90,7.0,9.0,93,-99.99,,,-99.99,,2013-07-31 05:52:00,
2013-07-31 01:12:00,69.0,67.0,-100.00,ESE,105,2.0,7.0,93,-99.99,,,-99.99,,2013-07-31 06:12:00,
2013-07-31 01:22:00,69.0,67.0,-100.00,ESE,105,2.0,7.0,93,-99.99,,,-99.99,,2013-07-31 06:22:00,
2013-07-31 01:53:00,69.0,67.0,-100.00,ESE,110,4.0,7.0,93,-99.99,,,-99.99,,2013-07-31 06:53:00,
2013-07-31 02:02:00,69.0,67.0,-100.00,ESE,115,1.0,5.0,93,-99.99,,,-99.99,,2013-07-31 07:02:00,
2013-07-31 02:22:00,69.0,67.0,-100.00,ESE,115,2.0,5.0,93,-99.99,,,-99.99,,2013-07-31 07:22:00,
2013-07-31 02:43:00,69.0,67.0,-100.00,ESE,120,3.0,4.0,93,-99.99,,,-99.99,,2013-07-31 07:43:00,
2013-07-31 02:52:00,69.0,67.0,-100.00,ESE,120,3.0,4.0,93,-99.99,,,-99.99,,2013-07-31 07:52:00,
2013-07-31 03:22:00,69.0,67.0,-100.00,ESE,120,4.0,6.0,93,-99.99,,,-99.99,,2013-07-31 08:22:00,
2013-07-31 03:42:00,69.0,67.0,-100.00,SE,125,2.0,4.0,93,-99.99,,,-99.99,,2013-07-31 08:42:00,
2013-07-31 03:53:00,69.0,67.0,-100.00,SE,125,2.0,4.0,93,-99.99,,,-99.99,,2013-07-31 08:53:00,
2013-07-31 04:02:00,69.0,67.0,-100.00,SE,125,4.0,6.0,93,-99.99,,,-99.99,,2013-07-31 09:02:00,
2013-07-31 04:22:00,69.0,67.0,-100.00,SE,125,3.0,5.0,93,-99.99,,,-99.99,,2013-07-31 09:22:00,
2013-07-31 04:43:00,69.0,67.0,-100.00,SE,130,1.0,5.0,93,-99.99,,,-99.99,,2013-07-31 09:43:00,
2013-07-31 04:52:00,69.0,67.0,-100.00,SE,130,1.0,5.0,93,-99.99,,,-99.99,,2013-07-31 09:52:00,
2013-07-31 05:22:00,69.0,67.0,-100.00,SE,135,3.0,6.0,93,-99.99,,,-99.99,,2013-07-31 10:22:00,
2013-07-31 05:32:00,69.0,67.0,-100.00,SE,135,2.0,5.0,93,-99.99,,,-99.99,,2013-07-31 10:32:00,
2013-07-31 05:44:00,69.0,67.0,-100.00,SE,140,2.0,5.0,93,-99.99,,,-99.99,,2013-07-31 10:44:00,
2013-07-31 05:52:00,69.0,67.0,-100.00,SE,140,2.0,5.0,93,-99.99,,,-99.99,,2013-07-31 10:52:00,
2013-07-31 06:03:00,69.0,67.0,-100.00,SE,140,1.0,3.0,93,-99.99,,,-99.99,,2013-07-31 11:03:00,
2013-07-31 06:12:00,69.0,67.0,-100.00,SSE,150,1.0,4.0,93,-99.99,,,-99.99,,2013-07-31 11:12:00,
2013-07-31 06:22:00,69.0,67.0,-100.00,SSE,150,1.0,4.0,93,-99.99,,,-99.99,,2013-07-31 11:22:00,
2013-07-31 06:33:00,69.0,67.0,-100.00,SSE,150,0.0,3.0,93,-99.99,,,-99.99,,2013-07-31 11:33:00,
2013-07-31 06:43:00,69.0,67.0,-100.00,SSE,155,1.0,3.0,93,-99.99,,,-99.99,,2013-07-31 11:43:00,
2013-07-31 06:53:00,69.0,67.0,-100.00,SSE,155,1.0,3.0,93,-99.99,,,-99.99,,2013-07-31 11:53:00,
2013-07-31 07:02:00,70.0,68.0,-100.00,SSE,160,0.0,1.0,93,-99.99,,,-99.99,,2013-07-31 12:02:00,
2013-07-31 07:22:00,70.0,68.0,-100.00,SSE,160,0.0,2.0,93,-99.99,,,-99.99,,2013-07-31 12:22:00,
2013-07-31 07:43:00,70.0,68.0,-100.00,SSE,155,1.0,2.0,93,-99.99,,,-99.99,,2013-07-31 12:43:00,
2013-07-31 07:53:00,70.0,68.0,-100.00,SSE,155,1.0,2.0,93,-99.99,,,-99.99,,2013-07-31 12:53:00,
2013-07-31 08:12:00,70.0,69.0,-100.00,SSE,155,1.0,2.0,94,-99.99,,,-99.99,,2013-07-31 13:12:00,
2013-07-31 08:22:00,70.0,69.0,-100.00,SSE,155,1.0,2.0,94,-99.99,,,-99.99,,2013-07-31 13:22:00,
2013-07-31 08:43:00,70.0,68.0,-100.00,SSE,155,4.0,5.0,94,-99.99,,,-99.99,,2013-07-31 13:43:00,
2013-07-31 08:53:00,70.0,68.0,-100.00,SSE,155,4.0,5.0,94,-99.99,,,-99.99,,2013-07-31 13:53:00,
2013-07-31 09:02:00,71.0,69.0,-100.00,SSE,160,1.0,5.0,94,-99.99,,,-99.99,,2013-07-31 14:02:00,
2013-07-31 09:12:00,71.0,69.0,-100.00,SSE,160,2.0,4.0,94,-99.99,,,-99.99,,2013-07-31 14:12:00,
2013-07-31 09:23:00,71.0,69.0,-100.00,SSE,160,2.0,4.0,94,-99.99,,,-99.99,,2013-07-31 14:23:00,
2013-07-31 09:43:00,70.0,69.0,-100.00,SSE,165,4.0,7.0,94,-99.99,,,-99.99,,2013-07-31 14:43:00,
2013-07-31 09:53:00,70.0,69.0,-100.00,SSE,165,4.0,7.0,94,-99.99,,,-99.99,,2013-07-31 14:53:00,
2013-07-31 10:22:00,71.0,69.0,-100.00,SSE,165,3.0,5.0,93,-99.99,,,-99.99,,2013-07-31 15:22:00,
2013-07-31 10:53:00,71.0,69.0,-100.00,South,175,3.0,7.0,93,-99.99,,,-99.99,,2013-07-31 15:53:00,
2013-07-31 11:22:00,70.0,68.0,-100.00,South,170,4.0,10.0,93,-99.99,,,-99.99,,2013-07-31 16:22:00,
2013-07-31 11:44:00,71.0,68.0,-100.00,ESE,110,2.0,7.0,93,-99.99,,,-99.99,,2013-07-31 16:44:00,
2013-07-31 11:52:00,71.0,68.0,-100.00,ESE,110,2.0,7.0,93,-99.99,,,-99.99,,2013-07-31 16:52:00,
2013-07-31 12:03:00,71.0,69.0,-100.00,NE,50,4.0,8.0,93,-99.99,,,-99.99,,2013-07-31 17:03:00,
2013-07-31 12:13:00,71.0,69.0,-100.00,NE,35,3.0,9.0,93,-99.99,,,-99.99,,2013-07-31 17:13:00,
2013-07-31 12:22:00,71.0,69.0,-100.00,NE,35,3.0,9.0,93,-99.99,,,-99.99,,2013-07-31 17:22:00,
2013-07-31 12:43:00,71.0,68.0,-100.00,NNE,15,6.0,11.0,91,-99.99,,,-99.99,,2013-07-31 17:43:00,
2013-07-31 12:53:00,71.0,68.0,-100.00,NNE,15,6.0,11.0,91,-99.99,,,-99.99,,2013-07-31 17:53:00,
2013-07-31 13:02:00,71.0,68.0,-100.00,NNE,15,4.0,9.0,89,-99.99,,,-99.99,,2013-07-31 18:02:00,
2013-07-31 13:22:00,72.0,68.0,-100.00,North,10,4.0,10.0,87,-99.99,,,-99.99,,2013-07-31 18:22:00,
2013-07-31 13:52:00,73.0,67.0,-100.00,North,5,5.0,9.0,80,-99.99,,,-99.99,,2013-07-31 18:52:00,
2013-07-31 14:22:00,75.0,67.0,-100.00,North,5,6.0,11.0,77,-99.99,,,-99.99,,2013-07-31 19:22:00,
2013-07-31 14:33:00,75.0,68.0,-100.00,North,5,5.0,10.0,77,-99.99,,,-99.99,,2013-07-31 19:33:00,
2013-07-31 14:43:00,76.0,67.0,-100.00,North,5,4.0,11.0,76,-99.99,,,-99.99,,2013-07-31 19:43:00,
2013-07-31 14:53:00,76.0,67.0,-100.00,North,5,4.0,11.0,76,-99.99,,,-99.99,,2013-07-31 19:53:00,
2013-07-31 15:12:00,76.0,67.0,-100.00,North,5,4.0,11.0,74,-99.99,,,-99.99,,2013-07-31 20:12:00,
2013-07-31 15:22:00,76.0,67.0,-100.00,North,5,4.0,11.0,74,-99.99,,,-99.99,,2013-07-31 20:22:00,
2013-07-31 15:43:00,76.0,67.0,-100.00,North,5,7.0,13.0,73,-99.99,,,-99.99,,2013-07-31 20:43:00,
2013-07-31 15:53:00,76.0,67.0,-100.00,North,5,7.0,13.0,73,-99.99,,,-99.99,,2013-07-31 20:53:00,
2013-07-31 16:13:00,76.0,67.0,-100.00,North,5,5.0,11.0,74,-99.99,,,-99.99,,2013-07-31 21:13:00,
2013-07-31 16:22:00,76.0,67.0,-100.00,North,5,5.0,11.0,74,-99.99,,,-99.99,,2013-07-31 21:22:00,
2013-07-31 16:43:00,76.0,68.0,-100.00,North,5,5.0,10.0,75,-99.99,,,-99.99,,2013-07-31 21:43:00,
2013-07-31 16:53:00,76.0,68.0,-100.00,North,5,5.0,10.0,75,-99.99,,,-99.99,,2013-07-31 21:53:00,
2013-07-31 17:22:00,76.0,67.0,-100.00,North,5,4.0,11.0,72,-99.99,,,-99.99,,2013-07-31 22:22:00,
2013-07-31 17:43:00,76.0,67.0,-100.00,North,5,6.0,11.0,73,-99.99,,,-99.99,,2013-07-31 22:43:00,
2013-07-31 17:53:00,76.0,67.0,-100.00,North,5,6.0,11.0,73,-99.99,,,-99.99,,2013-07-31 22:53:00,
2013-07-31 18:12:00,76.0,67.0,-100.00,North,5,4.0,10.0,74,-99.99,,,-99.99,,2013-07-31 23:12:00,
2013-07-31 18:22:00,76.0,67.0,-100.00,North,5,4.0,10.0,74,-99.99,,,-99.99,,2013-07-31 23:22:00,
2013-07-31 18:32:00,76.0,67.0,-100.00,North,5,4.0,8.0,74,-99.99,,,-99.99,,2013-07-31 23:32:00,
2013-07-31 18:42:00,76.0,67.0,-100.00,North,5,4.0,7.0,74,-99.99,,,-99.99,,2013-07-31 23:42:00,
2013-07-31 18:52:00,76.0,67.0,-100.00,North,5,4.0,7.0,74,-99.99,,,-99.99,,2013-07-31 23:52:00,
2013-07-31 19:02:00,77.0,68.0,-100.00,North,5,3.0,5.0,74,-99.99,,,-99.99,,2013-08-01 00:02:00,
2013-07-31 19:12:00,77.0,67.0,-100.00,North,5,4.0,7.0,73,-99.99,,,-99.99,,2013-08-01 00:12:00,
2013-07-31 19:22:00,77.0,67.0,-100.00,North,5,4.0,7.0,73,-99.99,,,-99.99,,2013-08-01 00:22:00,
2013-07-31 19:32:00,77.0,68.0,-100.00,North,5,4.0,5.0,73,-99.99,,,-99.99,,2013-08-01 00:32:00,
2013-07-31 19:43:00,77.0,68.0,-100.00,North,5,2.0,4.0,73,-99.99,,,-99.99,,2013-08-01 00:43:00,
2013-07-31 19:52:00,77.0,68.0,-100.00,North,5,2.0,4.0,73,-99.99,,,-99.99,,2013-08-01 00:52:00,
2013-07-31 20:02:00,76.0,68.0,-100.00,North,5,4.0,5.0,74,-99.99,,,-99.99,,2013-08-01 01:02:00,
2013-07-31 20:12:00,76.0,68.0,-100.00,North,5,4.0,5.0,76,-99.99,,,-99.99,,2013-08-01 01:12:00,
2013-07-31 20:22:00,76.0,68.0,-100.00,North,5,4.0,5.0,76,-99.99,,,-99.99,,2013-08-01 01:22:00,
2013-07-31 20:33:00,75.0,68.0,-100.00,North,5,1.0,4.0,78,-99.99,,,-99.99,,2013-08-01 01:33:00,
2013-07-31 20:43:00,74.0,68.0,-100.00,North,10,2.0,3.0,80,-99.99,,,-99.99,,2013-08-01 01:43:00,
2013-07-31 20:53:00,74.0,68.0,-100.00,North,10,2.0,3.0,80,-99.99,,,-99.99,,2013-08-01 01:53:00,
2013-07-31 21:02:00,74.0,68.0,-100.00,North,10,4.0,4.0,82,-99.99,,,-99.99,,2013-08-01 02:02:00,
2013-07-31 21:12:00,74.0,68.0,-100.00,NNE,15,1.0,4.0,84,-99.99,,,-99.99,,2013-08-01 02:12:00,
2013-07-31 21:22:00,74.0,68.0,-100.00,NNE,15,1.0,4.0,84,-99.99,,,-99.99,,2013-08-01 02:22:00,
2013-07-31 21:32:00,73.0,68.0,-100.00,NNE,15,1.0,4.0,85,-99.99,,,-99.99,,2013-08-01 02:32:00,
2013-07-31 21:43:00,72.0,68.0,-100.00,NNE,15,2.0,2.0,86,-99.99,,,-99.99,,2013-08-01 02:43:00,
2013-07-31 21:53:00,72.0,68.0,-100.00,NNE,15,2.0,2.0,86,-99.99,,,-99.99,,2013-08-01 02:53:00,
2013-07-31 22:02:00,72.0,68.0,-100.00,NNE,20,1.0,3.0,87,-99.99,,,-99.99,,2013-08-01 03:02:00,
2013-07-31 22:12:00,72.0,68.0,-100.00,NNE,20,2.0,4.0,87,-99.99,,,-99.99,,2013-08-01 03:12:00,
2013-07-31 22:22:00,72.0,68.0,-100.00,NNE,20,2.0,4.0,87,-99.99,,,-99.99,,2013-08-01 03:22:00,
2013-07-31 22:43:00,71.0,68.0,-100.00,NNE,25,2.0,4.0,88,-99.99,,,-99.99,,2013-08-01 03:43:00,
2013-07-31 22:53:00,71.0,68.0,-100.00,NNE,25,2.0,4.0,88,-99.99,,,-99.99,,2013-08-01 03:53:00,
2013-07-31 23:12:00,71.0,67.0,-100.00,NNE,25,2.0,4.0,89,-99.99,,,-99.99,,2013-08-01 04:12:00,
2013-07-31 23:22:00,71.0,67.0,-100.00,NNE,25,2.0,4.0,89,-99.99,,,-99.99,,2013-08-01 04:22:00,
2013-07-31 23:43:00,70.0,67.0,-100.00,NNE,25,2.0,4.0,89,-99.99,,,-99.99,,2013-08-01 04:43:00,
2013-07-31 23:53:00,70.0,67.0,-100.00,NNE,25,2.0,4.0,89,-99.99,,,-99.99,,2013-08-01 04:53:00,